Terminal Aerodrome Forecast
Issued by NWS

Home | Current Version | Previous Version | Text Only | Print | Product List | Glossary On
Versions: 1 2 3 4 5 6 7 8 9 10 11 12 13 14 15 16 17 18
999
FTUS41 KCAR 191722
TAFBHB
TAF
KBHB 191722Z 1918/2018 22018KT 3SM -SHRA OVC005
     FM192000 26016KT P6SM VCSH BKN010
     FM192100 28015KT P6SM BKN045
     FM192200 28015KT P6SM SCT060
      AMD NOT SKED=

USA.gov is the U.S. government's official web portal to all federal, state and local government web resources and services.